METAR Data
IDs: Format: Raw Decoded Include TAF

Data at: 1108 UTC 26 Sep 2018

KSRR 261055Z AUTO 13006KT 09/09 A3037 RMK AO2
KSRR 261035Z AUTO 15005KT 09/09 A3037 RMK AO2
KSRR 261015Z AUTO 14006KT 09/09 A3037 RMK AO2
KSRR 260955Z AUTO 16008KT 09/09 A3037 RMK AO2
KSRR 260935Z AUTO 17009KT 09/09 A3036 RMK AO2
KSRR 260915Z AUTO 15010KT 09/09 A3035 RMK AO2
KSRR 260855Z AUTO 14010KT 09/09 A3036 RMK AO2
KSRR 260835Z AUTO 17005KT 09/09 A3038 RMK AO2
KSRR 260815Z AUTO 15011KT 09/09 A3036 RMK AO2
KSRR 260755Z AUTO 16013KT 09/09 A3036 RMK AO2
KSRR 260735Z AUTO 14009KT 09/09 A3037 RMK AO2
KSRR 260715Z AUTO 14006KT 10/10 A3038 RMK AO2
KSRR 260655Z AUTO 10/10 A3038 RMK AO2
KSRR 260635Z AUTO 10/10 A3038 RMK AO2
KSRR 260615Z AUTO 00000KT 10/10 A3037 RMK AO2
KSRR 260555Z AUTO 19003KT -RA 10/10 A3038 RMK AO2 P0008
KSRR 260535Z AUTO 23004KT -RA 10/10 A3039 RMK AO2 P0006
KSRR 260515Z AUTO 00000KT RA 10/10 A3039 RMK AO2 P0005
KSRR 260455Z AUTO 00000KT RA 10/10 A3040 RMK AO2 LTG DSNT NE P0050
KSRR 260435Z AUTO 36010G15KT -RA 11/10 A3039 RMK AO2 LTG DSNT NE P0044
KSRR 260415Z AUTO 29010G15KT +RA 12/10 A3039 RMK AO2 LTG DSNT SW-N P0027
KSRR 260355Z AUTO 18005KT 13/10 A3036 RMK AO2 LTG DSNT W AND NW
KSRR 260335Z AUTO 13009KT 14/09 A3034 RMK AO2 LTG DSNT NW
KSRR 260315Z AUTO 26004KT 14/10 A3034 RMK AO2 LTG DSNT E AND W AND NW
KSRR 260255Z AUTO 26006KT 14/10 A3034 RMK AO2
KSRR 260235Z AUTO 26005KT 14/10 A3032 RMK AO2 LTG DSNT W
KSRR 260215Z AUTO 28004KT VCTS 14/10 A3031 RMK AO2 LTG DSNT W
KSRR 260155Z AUTO 29007KT 15/10 A3030 RMK AO2
KSRR 260135Z AUTO 28003KT 15/10 A3029 RMK AO2 LTG DSNT W AND NW
KSRR 260115Z AUTO 00000KT 17/09 A3028 RMK AO2
KSRR 260055Z AUTO 02003KT 18/09 A3027 RMK AO2 LTG DSNT NE AND W
KSRR 260035Z AUTO 36005KT 18/08 A3025 RMK AO2 LTG DSNT N AND W
KSRR 260015Z AUTO 12004KT VCTS 19/08 A3024 RMK AO2 LTG DSNT W
KSRR 252355Z AUTO 10008KT VCTS 19/08 A3022 RMK AO2 LTG DSNT N AND NW
KSRR 252335Z AUTO 10012G16KT 19/09 A3022 RMK AO2 LTG DSNT W AND NW
KSRR 252315Z AUTO 09012KT 19/09 A3022 RMK AO2 LTG DSNT NW
KSRR 252255Z AUTO 11007KT 23/06 A3022 RMK AO2
KSRR 252235Z AUTO 33003KT 24/04 A3021 RMK AO2
KSRR 252215Z AUTO 28004KT 23/04 A3021 RMK AO2
KSRR 252155Z AUTO 00000KT 23/04 A3021 RMK AO2
KSRR 252135Z AUTO 00000KT 24/04 A3022 RMK AO2
KSRR 252115Z AUTO 31005KT 23/05 A3022 RMK AO2
KSRR 252055Z AUTO 00000KT 23/04 A3022 RMK AO2
KSRR 252035Z AUTO 06003KT 23/05 A3023 RMK AO2
KSRR 252015Z AUTO 31009KT 24/05 A3023 RMK AO2
KSRR 251955Z AUTO 31005KT 23/05 A3024 RMK AO2
KSRR 251935Z AUTO 32009KT 23/05 A3025 RMK AO2
KSRR 251915Z AUTO 32008G14KT 23/05 A3025 RMK AO2
KSRR 251855Z AUTO 28007KT 24/05 A3025 RMK AO2
KSRR 251835Z AUTO 32006KT 24/05 A3025 RMK AO2
KSRR 251815Z AUTO 27007KT 24/05 A3025 RMK AO2
KSRR 251755Z AUTO 32009G14KT 23/05 A3026 RMK AO2
KSRR 251735Z AUTO 31009G14KT 23/05 A3026 RMK AO2
KSRR 251715Z AUTO 30009G15KT 280V350 23/06 A3027 RMK AO2
KSRR 251655Z AUTO 32008G15KT 22/05 A3027 RMK AO2
KSRR 251635Z AUTO 31010G14KT 22/05 A3027 RMK AO2
KSRR 251615Z AUTO 31010KT 22/05 A3026 RMK AO2
KSRR 251555Z AUTO 33007G15KT 21/05 A3026 RMK AO2
KSRR 251535Z AUTO 32007G16KT 21/05 A3026 RMK AO2
KSRR 251515Z AUTO 32006KT 20/05 A3025 RMK AO2
KSRR 251455Z AUTO 33007KT 19/06 A3024 RMK AO2
KSRR 251435Z AUTO 30005KT 19/05 A3023 RMK AO2
KSRR 251415Z AUTO 27007KT 18/05 A3023 RMK AO2
KSRR 251355Z AUTO 27006KT 17/04 A3023 RMK AO2
KSRR 251335Z AUTO 26008KT 15/04 A3022 RMK AO2
KSRR 251315Z AUTO 25008KT 15/04 A3022 RMK AO2
KSRR 251255Z AUTO 25009KT 14/04 A3021 RMK AO2
KSRR 251235Z AUTO 23006KT 14/04 A3021 RMK AO2
KSRR 251215Z AUTO 25007KT 14/04 A3021 RMK AO2
KSRR 251155Z AUTO 23007KT 13/04 A3020 RMK AO2
KSRR 251135Z AUTO 22006KT 13/04 A3019 RMK AO2
KSRR 251115Z AUTO 29004KT 15/03 A3019 RMK AO2
KSRR 251055Z AUTO 26003KT 14/03 A3018 RMK AO2
KSRR 251035Z AUTO 27003KT 15/03 A3018 RMK AO2
KSRR 251015Z AUTO 24004KT 15/03 A3017 RMK AO2
KSRR 250955Z AUTO 26008KT 15/03 A3017 RMK AO2
KSRR 250935Z AUTO 28006KT 15/03 A3017 RMK AO2
KSRR 250915Z AUTO 29005KT 15/03 A3017 RMK AO2
KSRR 250855Z AUTO 30004KT 16/03 A3017 RMK AO2
KSRR 250835Z AUTO 30003KT 16/02 A3017 RMK AO2
KSRR 250815Z AUTO 00000KT 15/03 A3017 RMK AO2
KSRR 250755Z AUTO 00000KT 15/03 A3017 RMK AO2
KSRR 250735Z AUTO 35004KT 15/02 A3017 RMK AO2
KSRR 250715Z AUTO 28004KT 16/02 A3016 RMK AO2
KSRR 250655Z AUTO 00000KT 16/02 A3016 RMK AO2
KSRR 250635Z AUTO 27004KT 17/02 A3017 RMK AO2
KSRR 250615Z AUTO 00000KT 15/03 A3017 RMK AO2
KSRR 250555Z AUTO 28006KT 15/03 A3017 RMK AO2
KSRR 250515Z AUTO 23008KT 15/03 A3018 RMK AO2
KSRR 250455Z AUTO 28004KT 15/03 A3018 RMK AO2
KSRR 250435Z AUTO 00000KT 15/03 A3017 RMK AO2
KSRR 250415Z AUTO 00000KT 15/03 A3017 RMK AO2
KSRR 250355Z AUTO 22006KT 15/03 A3017 RMK AO2
KSRR 250335Z AUTO 23007KT 16/03 A3016 RMK AO2
KSRR 250315Z AUTO 22008KT 16/03 A3016 RMK AO2
KSRR 250255Z AUTO 23009KT 16/03 A3016 RMK AO2
KSRR 250235Z AUTO 25009KT 18/03 A3015 RMK AO2
KSRR 250215Z AUTO 25009KT 18/02 A3015 RMK AO2
KSRR 250155Z AUTO 25007KT 18/02 A3015 RMK AO2
KSRR 250135Z AUTO 26008KT 19/02 A3014 RMK AO2
KSRR 250115Z AUTO 25006KT 19/03 A3014 RMK AO2
KSRR 250055Z AUTO 25004KT 20/02 A3014 RMK AO2
KSRR 250035Z AUTO 29006KT 22/02 A3014 RMK AO2
KSRR 250015Z AUTO 30005KT 22/02 A3014 RMK AO2
KSRR 242355Z AUTO 30010KT 23/02 A3013 RMK AO2
KSRR 242335Z AUTO 32009G15KT 23/02 A3013 RMK AO2
KSRR 242315Z AUTO 29009KT 23/02 A3013 RMK AO2